sensor_id;sensor_type;location;lat;lon;timestamp;temperature;humidity
4908;DHT22;2469;51.540;7.364;2022-09-17T00:01:26;18.30;95.30
4908;DHT22;2469;51.540;7.364;2022-09-17T00:03:56;18.20;94.90
4908;DHT22;2469;51.540;7.364;2022-09-17T00:06:26;18.40;95.10
4908;DHT22;2469;51.540;7.364;2022-09-17T00:08:54;18.30;95.00
4908;DHT22;2469;51.540;7.364;2022-09-17T00:11:24;18.30;94.10
4908;DHT22;2469;51.540;7.364;2022-09-17T00:13:54;18.30;95.00
4908;DHT22;2469;51.540;7.364;2022-09-17T00:16:30;18.10;93.50
4908;DHT22;2469;51.540;7.364;2022-09-17T00:18:59;17.90;95.10
4908;DHT22;2469;51.540;7.364;2022-09-17T00:21:27;18.10;95.20
4908;DHT22;2469;51.540;7.364;2022-09-17T00:23:58;18.20;95.10
4908;DHT22;2469;51.540;7.364;2022-09-17T00:26:27;18.10;93.80
4908;DHT22;2469;51.540;7.364;2022-09-17T00:28:57;18.10;95.10
4908;DHT22;2469;51.540;7.364;2022-09-17T00:31:27;18.20;94.70
4908;DHT22;2469;51.540;7.364;2022-09-17T00:33:55;17.90;93.90
4908;DHT22;2469;51.540;7.364;2022-09-17T00:36:24;17.90;95.40
4908;DHT22;2469;51.540;7.364;2022-09-17T00:38:53;17.90;95.20
4908;DHT22;2469;51.540;7.364;2022-09-17T00:41:24;18.10;94.60
4908;DHT22;2469;51.540;7.364;2022-09-17T00:43:54;18.00;95.00
4908;DHT22;2469;51.540;7.364;2022-09-17T00:46:30;18.10;95.30
4908;DHT22;2469;51.540;7.364;2022-09-17T00:49:01;18.00;93.20
4908;DHT22;2469;51.540;7.364;2022-09-17T00:51:33;18.20;95.20
4908;DHT22;2469;51.540;7.364;2022-09-17T00:54:04;18.00;94.70
4908;DHT22;2469;51.540;7.364;2022-09-17T00:56:34;18.00;94.60
4908;DHT22;2469;51.540;7.364;2022-09-17T00:59:03;18.00;94.80
4908;DHT22;2469;51.540;7.364;2022-09-17T01:01:33;18.00;95.00
4908;DHT22;2469;51.540;7.364;2022-09-17T01:04:02;17.80;94.30
4908;DHT22;2469;51.540;7.364;2022-09-17T01:06:34;17.70;94.70
4908;DHT22;2469;51.540;7.364;2022-09-17T01:09:14;17.80;94.90
4908;DHT22;2469;51.540;7.364;2022-09-17T01:12:08;17.70;93.60
4908;DHT22;2469;51.540;7.364;2022-09-17T01:14:51;17.50;93.30
4908;DHT22;2469;51.540;7.364;2022-09-17T01:17:27;17.30;94.90
4908;DHT22;2469;51.540;7.364;2022-09-17T01:23:11;17.40;96.00
4908;DHT22;2469;51.540;7.364;2022-09-17T01:25:53;17.30;94.00
4908;DHT22;2469;51.540;7.364;2022-09-17T01:28:40;17.20;94.70
4908;DHT22;2469;51.540;7.364;2022-09-17T01:34:10;17.30;95.60
4908;DHT22;2469;51.540;7.364;2022-09-17T01:36:48;17.50;95.50
4908;DHT22;2469;51.540;7.364;2022-09-17T01:39:29;17.50;95.20
4908;DHT22;2469;51.540;7.364;2022-09-17T01:42:06;17.60;95.80
4908;DHT22;2469;51.540;7.364;2022-09-17T01:44:40;17.60;93.90
4908;DHT22;2469;51.540;7.364;2022-09-17T01:47:16;17.40;95.10
4908;DHT22;2469;51.540;7.364;2022-09-17T01:49:47;17.20;94.50
4908;DHT22;2469;51.540;7.364;2022-09-17T01:52:17;16.80;94.70
4908;DHT22;2469;51.540;7.364;2022-09-17T01:54:48;16.80;95.70
4908;DHT22;2469;51.540;7.364;2022-09-17T01:57:24;16.90;96.00
4908;DHT22;2469;51.540;7.364;2022-09-17T01:59:57;16.90;96.40
4908;DHT22;2469;51.540;7.364;2022-09-17T02:02:31;17.00;95.80
4908;DHT22;2469;51.540;7.364;2022-09-17T02:05:05;17.10;95.10
4908;DHT22;2469;51.540;7.364;2022-09-17T02:07:40;17.00;95.60
4908;DHT22;2469;51.540;7.364;2022-09-17T02:10:11;16.70;93.00
4908;DHT22;2469;51.540;7.364;2022-09-17T02:12:43;16.90;96.60
4908;DHT22;2469;51.540;7.364;2022-09-17T02:15:16;17.00;96.10
4908;DHT22;2469;51.540;7.364;2022-09-17T02:17:51;17.10;95.70
4908;DHT22;2469;51.540;7.364;2022-09-17T02:20:25;17.00;95.40
4908;DHT22;2469;51.540;7.364;2022-09-17T02:22:58;16.80;94.90
4908;DHT22;2469;51.540;7.364;2022-09-17T02:25:33;16.70;94.30
4908;DHT22;2469;51.540;7.364;2022-09-17T02:28:09;16.60;95.80
4908;DHT22;2469;51.540;7.364;2022-09-17T02:30:38;16.90;96.70
4908;DHT22;2469;51.540;7.364;2022-09-17T02:33:12;16.90;96.60
4908;DHT22;2469;51.540;7.364;2022-09-17T02:35:41;17.10;96.10
4908;DHT22;2469;51.540;7.364;2022-09-17T02:38:10;17.10;95.10
4908;DHT22;2469;51.540;7.364;2022-09-17T02:40:43;17.10;96.10
4908;DHT22;2469;51.540;7.364;2022-09-17T02:43:18;17.00;95.30
4908;DHT22;2469;51.540;7.364;2022-09-17T02:45:59;17.00;95.70
4908;DHT22;2469;51.540;7.364;2022-09-17T02:49:00;17.10;95.80
4908;DHT22;2469;51.540;7.364;2022-09-17T02:51:35;17.10;95.60
4908;DHT22;2469;51.540;7.364;2022-09-17T02:54:16;17.10;95.80
4908;DHT22;2469;51.540;7.364;2022-09-17T02:56:50;17.00;94.30
4908;DHT22;2469;51.540;7.364;2022-09-17T02:59:25;16.90;95.80
4908;DHT22;2469;51.540;7.364;2022-09-17T03:01:59;16.90;95.30
4908;DHT22;2469;51.540;7.364;2022-09-17T03:04:30;16.80;95.60
4908;DHT22;2469;51.540;7.364;2022-09-17T03:06:59;17.00;95.60
4908;DHT22;2469;51.540;7.364;2022-09-17T03:09:31;16.80;94.80
4908;DHT22;2469;51.540;7.364;2022-09-17T03:11:59;16.80;95.40
4908;DHT22;2469;51.540;7.364;2022-09-17T03:14:28;16.80;96.10
4908;DHT22;2469;51.540;7.364;2022-09-17T03:16:56;16.80;95.80
4908;DHT22;2469;51.540;7.364;2022-09-17T03:19:24;17.00;96.40
4908;DHT22;2469;51.540;7.364;2022-09-17T03:21:54;17.10;95.70
4908;DHT22;2469;51.540;7.364;2022-09-17T03:24:22;17.10;96.20
4908;DHT22;2469;51.540;7.364;2022-09-17T03:26:50;17.20;95.80
4908;DHT22;2469;51.540;7.364;2022-09-17T03:29:18;17.10;94.80
4908;DHT22;2469;51.540;7.364;2022-09-17T03:31:46;17.00;95.50
4908;DHT22;2469;51.540;7.364;2022-09-17T03:34:14;17.00;94.50
4908;DHT22;2469;51.540;7.364;2022-09-17T03:36:42;17.00;95.80
4908;DHT22;2469;51.540;7.364;2022-09-17T03:39:11;17.10;96.00
4908;DHT22;2469;51.540;7.364;2022-09-17T03:41:39;17.10;94.60
4908;DHT22;2469;51.540;7.364;2022-09-17T03:44:07;17.00;95.80
4908;DHT22;2469;51.540;7.364;2022-09-17T03:46:36;17.10;95.80
4908;DHT22;2469;51.540;7.364;2022-09-17T03:49:04;17.20;95.60
4908;DHT22;2469;51.540;7.364;2022-09-17T03:51:32;17.00;95.40
4908;DHT22;2469;51.540;7.364;2022-09-17T03:54:00;17.00;94.90
4908;DHT22;2469;51.540;7.364;2022-09-17T03:56:30;17.10;95.70
4908;DHT22;2469;51.540;7.364;2022-09-17T03:58:58;17.20;95.10
4908;DHT22;2469;51.540;7.364;2022-09-17T04:01:26;17.00;95.40
4908;DHT22;2469;51.540;7.364;2022-09-17T04:03:55;17.10;95.80
4908;DHT22;2469;51.540;7.364;2022-09-17T04:06:24;17.10;95.80
4908;DHT22;2469;51.540;7.364;2022-09-17T04:08:52;17.10;95.60
4908;DHT22;2469;51.540;7.364;2022-09-17T04:11:19;17.10;95.80
4908;DHT22;2469;51.540;7.364;2022-09-17T04:13:49;17.00;95.40
4908;DHT22;2469;51.540;7.364;2022-09-17T04:16:17;17.00;95.60
4908;DHT22;2469;51.540;7.364;2022-09-17T04:18:45;16.90;95.10
4908;DHT22;2469;51.540;7.364;2022-09-17T04:21:13;17.00;96.00
4908;DHT22;2469;51.540;7.364;2022-09-17T04:23:41;17.00;95.50
4908;DHT22;2469;51.540;7.364;2022-09-17T04:26:09;16.90;94.60
4908;DHT22;2469;51.540;7.364;2022-09-17T04:28:37;17.00;95.40
4908;DHT22;2469;51.540;7.364;2022-09-17T04:31:06;16.90;94.80
4908;DHT22;2469;51.540;7.364;2022-09-17T04:33:34;16.80;95.20
4908;DHT22;2469;51.540;7.364;2022-09-17T04:36:03;16.70;94.00
4908;DHT22;2469;51.540;7.364;2022-09-17T04:38:31;16.60;94.30
4908;DHT22;2469;51.540;7.364;2022-09-17T04:40:59;16.60;95.90
4908;DHT22;2469;51.540;7.364;2022-09-17T04:43:27;16.70;95.40
4908;DHT22;2469;51.540;7.364;2022-09-17T04:45:55;16.60;95.10
4908;DHT22;2469;51.540;7.364;2022-09-17T04:48:24;16.70;95.80
4908;DHT22;2469;51.540;7.364;2022-09-17T04:50:52;16.60;95.50
4908;DHT22;2469;51.540;7.364;2022-09-17T04:53:20;16.60;94.90
4908;DHT22;2469;51.540;7.364;2022-09-17T04:55:47;16.60;95.90
4908;DHT22;2469;51.540;7.364;2022-09-17T04:58:15;16.60;95.60
4908;DHT22;2469;51.540;7.364;2022-09-17T05:00:43;16.70;95.50
4908;DHT22;2469;51.540;7.364;2022-09-17T05:03:11;16.60;94.80
4908;DHT22;2469;51.540;7.364;2022-09-17T05:05:40;16.60;95.50
4908;DHT22;2469;51.540;7.364;2022-09-17T05:08:08;16.60;96.00
4908;DHT22;2469;51.540;7.364;2022-09-17T05:10:37;16.60;95.00
4908;DHT22;2469;51.540;7.364;2022-09-17T05:13:05;16.50;95.40
4908;DHT22;2469;51.540;7.364;2022-09-17T05:15:33;16.30;94.70
4908;DHT22;2469;51.540;7.364;2022-09-17T05:18:01;16.40;94.90
4908;DHT22;2469;51.540;7.364;2022-09-17T05:20:28;16.40;95.70
4908;DHT22;2469;51.540;7.364;2022-09-17T05:22:58;16.30;94.70
4908;DHT22;2469;51.540;7.364;2022-09-17T05:25:26;16.00;94.30
4908;DHT22;2469;51.540;7.364;2022-09-17T05:27:54;16.00;94.20
4908;DHT22;2469;51.540;7.364;2022-09-17T05:30:22;16.10;94.60
4908;DHT22;2469;51.540;7.364;2022-09-17T05:32:58;16.30;96.50
4908;DHT22;2469;51.540;7.364;2022-09-17T05:35:26;16.30;96.10
4908;DHT22;2469;51.540;7.364;2022-09-17T05:38:00;16.40;95.60
4908;DHT22;2469;51.540;7.364;2022-09-17T05:40:28;16.50;94.90
4908;DHT22;2469;51.540;7.364;2022-09-17T05:42:57;16.50;96.20
4908;DHT22;2469;51.540;7.364;2022-09-17T05:45:25;16.60;95.80
4908;DHT22;2469;51.540;7.364;2022-09-17T05:47:54;16.50;95.60
4908;DHT22;2469;51.540;7.364;2022-09-17T05:50:22;16.70;96.00
4908;DHT22;2469;51.540;7.364;2022-09-17T05:52:51;16.90;95.60
4908;DHT22;2469;51.540;7.364;2022-09-17T05:55:22;16.80;95.60
4908;DHT22;2469;51.540;7.364;2022-09-17T05:57:50;16.90;95.60
4908;DHT22;2469;51.540;7.364;2022-09-17T06:00:18;16.90;95.50
4908;DHT22;2469;51.540;7.364;2022-09-17T06:02:46;16.90;94.40
4908;DHT22;2469;51.540;7.364;2022-09-17T06:05:14;16.80;95.40
4908;DHT22;2469;51.540;7.364;2022-09-17T06:07:42;16.80;94.70
4908;DHT22;2469;51.540;7.364;2022-09-17T06:10:10;16.70;95.10
4908;DHT22;2469;51.540;7.364;2022-09-17T06:12:39;16.80;95.50
4908;DHT22;2469;51.540;7.364;2022-09-17T06:15:07;16.90;95.10
4908;DHT22;2469;51.540;7.364;2022-09-17T06:17:35;17.00;95.40
4908;DHT22;2469;51.540;7.364;2022-09-17T06:20:04;17.10;95.40
4908;DHT22;2469;51.540;7.364;2022-09-17T06:22:32;17.20;95.40
4908;DHT22;2469;51.540;7.364;2022-09-17T06:25:00;17.10;94.70
4908;DHT22;2469;51.540;7.364;2022-09-17T06:27:30;17.00;94.80
4908;DHT22;2469;51.540;7.364;2022-09-17T06:30:00;17.00;95.40
4908;DHT22;2469;51.540;7.364;2022-09-17T06:32:28;17.20;95.40
4908;DHT22;2469;51.540;7.364;2022-09-17T06:34:56;17.20;95.30
4908;DHT22;2469;51.540;7.364;2022-09-17T06:37:26;17.10;94.40
4908;DHT22;2469;51.540;7.364;2022-09-17T06:39:55;17.10;95.40
4908;DHT22;2469;51.540;7.364;2022-09-17T06:42:25;17.10;95.30
4908;DHT22;2469;51.540;7.364;2022-09-17T06:44:54;17.00;94.30
4908;DHT22;2469;51.540;7.364;2022-09-17T06:47:26;17.00;95.30
4908;DHT22;2469;51.540;7.364;2022-09-17T06:49:54;17.10;95.40
4908;DHT22;2469;51.540;7.364;2022-09-17T06:52:22;17.20;95.40
4908;DHT22;2469;51.540;7.364;2022-09-17T06:54:50;17.30;94.80
4908;DHT22;2469;51.540;7.364;2022-09-17T06:57:18;17.30;94.70
4908;DHT22;2469;51.540;7.364;2022-09-17T06:59:46;17.20;94.90
4908;DHT22;2469;51.540;7.364;2022-09-17T07:02:15;17.20;95.10
4908;DHT22;2469;51.540;7.364;2022-09-17T07:04:44;17.20;95.30
4908;DHT22;2469;51.540;7.364;2022-09-17T07:07:12;17.20;95.00
4908;DHT22;2469;51.540;7.364;2022-09-17T07:09:40;17.20;95.10
4908;DHT22;2469;51.540;7.364;2022-09-17T07:12:08;17.30;95.20
4908;DHT22;2469;51.540;7.364;2022-09-17T07:14:36;17.40;95.10
4908;DHT22;2469;51.540;7.364;2022-09-17T07:17:04;17.30;94.60
4908;DHT22;2469;51.540;7.364;2022-09-17T07:19:32;17.30;95.20
4908;DHT22;2469;51.540;7.364;2022-09-17T07:22:01;17.20;95.20
4908;DHT22;2469;51.540;7.364;2022-09-17T07:24:29;17.30;95.30
4908;DHT22;2469;51.540;7.364;2022-09-17T07:26:59;17.30;95.00
4908;DHT22;2469;51.540;7.364;2022-09-17T07:29:27;17.20;93.90
4908;DHT22;2469;51.540;7.364;2022-09-17T07:31:55;17.20;95.40
4908;DHT22;2469;51.540;7.364;2022-09-17T07:34:24;17.20;95.20
4908;DHT22;2469;51.540;7.364;2022-09-17T07:36:53;17.20;95.20
4908;DHT22;2469;51.540;7.364;2022-09-17T07:39:22;17.20;95.20
4908;DHT22;2469;51.540;7.364;2022-09-17T07:41:50;17.20;94.80
4908;DHT22;2469;51.540;7.364;2022-09-17T07:44:18;17.30;94.70
4908;DHT22;2469;51.540;7.364;2022-09-17T07:46:47;17.30;95.10
4908;DHT22;2469;51.540;7.364;2022-09-17T07:49:15;17.40;93.30
4908;DHT22;2469;51.540;7.364;2022-09-17T07:51:43;17.20;92.30
4908;DHT22;2469;51.540;7.364;2022-09-17T07:54:11;17.00;92.50
4908;DHT22;2469;51.540;7.364;2022-09-17T07:56:41;16.80;92.40
4908;DHT22;2469;51.540;7.364;2022-09-17T07:59:09;16.70;92.50
4908;DHT22;2469;51.540;7.364;2022-09-17T08:01:37;16.60;92.60
4908;DHT22;2469;51.540;7.364;2022-09-17T08:04:05;16.50;92.60
4908;DHT22;2469;51.540;7.364;2022-09-17T08:06:35;16.40;92.70
4908;DHT22;2469;51.540;7.364;2022-09-17T08:09:04;16.30;92.90
4908;DHT22;2469;51.540;7.364;2022-09-17T08:11:32;16.30;93.10
4908;DHT22;2469;51.540;7.364;2022-09-17T08:14:22;16.30;93.70
4908;DHT22;2469;51.540;7.364;2022-09-17T08:16:55;16.40;94.10
4908;DHT22;2469;51.540;7.364;2022-09-17T08:19:23;16.60;94.00
4908;DHT22;2469;51.540;7.364;2022-09-17T08:21:51;16.80;93.80
4908;DHT22;2469;51.540;7.364;2022-09-17T08:24:19;17.00;93.80
4908;DHT22;2469;51.540;7.364;2022-09-17T08:26:47;17.20;93.80
4908;DHT22;2469;51.540;7.364;2022-09-17T08:29:15;17.30;93.70
4908;DHT22;2469;51.540;7.364;2022-09-17T08:31:44;17.50;93.70
4908;DHT22;2469;51.540;7.364;2022-09-17T08:34:12;17.60;93.70
4908;DHT22;2469;51.540;7.364;2022-09-17T08:36:40;17.70;93.70
4908;DHT22;2469;51.540;7.364;2022-09-17T08:39:08;17.70;93.60
4908;DHT22;2469;51.540;7.364;2022-09-17T08:41:48;17.60;90.70
4908;DHT22;2469;51.540;7.364;2022-09-17T08:44:24;17.60;93.60
4908;DHT22;2469;51.540;7.364;2022-09-17T08:46:59;17.70;93.50
4908;DHT22;2469;51.540;7.364;2022-09-17T08:49:33;17.80;93.40
4908;DHT22;2469;51.540;7.364;2022-09-17T08:52:27;17.90;93.30
4908;DHT22;2469;51.540;7.364;2022-09-17T08:55:00;18.00;93.20
4908;DHT22;2469;51.540;7.364;2022-09-17T08:57:36;18.00;93.00
4908;DHT22;2469;51.540;7.364;2022-09-17T09:00:10;18.10;93.10
4908;DHT22;2469;51.540;7.364;2022-09-17T09:02:50;18.10;93.00
4908;DHT22;2469;51.540;7.364;2022-09-17T09:05:25;18.10;92.90
4908;DHT22;2469;51.540;7.364;2022-09-17T09:08:01;18.20;92.80
4908;DHT22;2469;51.540;7.364;2022-09-17T09:10:34;18.20;92.70
4908;DHT22;2469;51.540;7.364;2022-09-17T09:13:09;18.30;92.70
4908;DHT22;2469;51.540;7.364;2022-09-17T09:15:41;18.20;92.90
4908;DHT22;2469;51.540;7.364;2022-09-17T09:18:17;18.20;92.70
4908;DHT22;2469;51.540;7.364;2022-09-17T09:20:48;18.20;92.40
4908;DHT22;2469;51.540;7.364;2022-09-17T09:23:20;18.30;92.60
4908;DHT22;2469;51.540;7.364;2022-09-17T09:25:59;18.40;92.10
4908;DHT22;2469;51.540;7.364;2022-09-17T09:29:02;18.40;92.30
4908;DHT22;2469;51.540;7.364;2022-09-17T09:31:46;18.40;91.30
4908;DHT22;2469;51.540;7.364;2022-09-17T09:34:18;18.40;91.90
4908;DHT22;2469;51.540;7.364;2022-09-17T09:36:46;18.40;90.60
4908;DHT22;2469;51.540;7.364;2022-09-17T09:39:20;18.40;92.10
4908;DHT22;2469;51.540;7.364;2022-09-17T09:41:52;18.30;91.80
4908;DHT22;2469;51.540;7.364;2022-09-17T09:44:23;18.40;92.10
4908;DHT22;2469;51.540;7.364;2022-09-17T09:47:11;18.50;91.50
4908;DHT22;2469;51.540;7.364;2022-09-17T09:49:52;18.40;91.10
4908;DHT22;2469;51.540;7.364;2022-09-17T09:52:34;18.20;89.60
4908;DHT22;2469;51.540;7.364;2022-09-17T09:55:19;17.70;85.90
4908;DHT22;2469;51.540;7.364;2022-09-17T09:57:57;17.60;87.90
4908;DHT22;2469;51.540;7.364;2022-09-17T10:00:33;17.40;87.70
4908;DHT22;2469;51.540;7.364;2022-09-17T10:03:13;17.40;88.40
4908;DHT22;2469;51.540;7.364;2022-09-17T10:05:53;17.30;85.00
4908;DHT22;2469;51.540;7.364;2022-09-17T10:08:23;17.40;90.30
4908;DHT22;2469;51.540;7.364;2022-09-17T10:10:56;17.40;84.60
4908;DHT22;2469;51.540;7.364;2022-09-17T10:13:25;17.10;82.50
4908;DHT22;2469;51.540;7.364;2022-09-17T10:15:53;17.10;89.40
4908;DHT22;2469;51.540;7.364;2022-09-17T10:18:23;17.50;91.00
4908;DHT22;2469;51.540;7.364;2022-09-17T10:20:57;17.60;90.60
4908;DHT22;2469;51.540;7.364;2022-09-17T10:23:27;17.80;86.90
4908;DHT22;2469;51.540;7.364;2022-09-17T10:25:57;17.70;90.60
4908;DHT22;2469;51.540;7.364;2022-09-17T10:28:46;18.00;90.80
4908;DHT22;2469;51.540;7.364;2022-09-17T10:31:15;18.10;89.90
4908;DHT22;2469;51.540;7.364;2022-09-17T10:33:52;18.30;90.50
4908;DHT22;2469;51.540;7.364;2022-09-17T10:36:40;18.50;90.00
4908;DHT22;2469;51.540;7.364;2022-09-17T10:39:33;18.30;84.70
4908;DHT22;2469;51.540;7.364;2022-09-17T10:42:03;18.20;86.10
4908;DHT22;2469;51.540;7.364;2022-09-17T10:44:33;18.30;86.20
4908;DHT22;2469;51.540;7.364;2022-09-17T10:47:04;18.20;88.60
4908;DHT22;2469;51.540;7.364;2022-09-17T10:49:36;18.30;90.40
4908;DHT22;2469;51.540;7.364;2022-09-17T10:52:19;18.30;85.60
4908;DHT22;2469;51.540;7.364;2022-09-17T10:55:12;18.20;90.40
4908;DHT22;2469;51.540;7.364;2022-09-17T11:00:50;18.30;87.00
4908;DHT22;2469;51.540;7.364;2022-09-17T11:03:50;18.30;90.90
4908;DHT22;2469;51.540;7.364;2022-09-17T11:06:29;18.50;91.00
4908;DHT22;2469;51.540;7.364;2022-09-17T11:09:07;18.70;90.60
4908;DHT22;2469;51.540;7.364;2022-09-17T11:11:48;18.90;90.50
4908;DHT22;2469;51.540;7.364;2022-09-17T11:14:35;18.90;87.00
4908;DHT22;2469;51.540;7.364;2022-09-17T11:17:12;19.00;90.20
4908;DHT22;2469;51.540;7.364;2022-09-17T11:19:54;19.10;90.40
4908;DHT22;2469;51.540;7.364;2022-09-17T11:22:33;19.00;90.00
4908;DHT22;2469;51.540;7.364;2022-09-17T11:25:20;19.20;90.00
4908;DHT22;2469;51.540;7.364;2022-09-17T11:28:03;19.20;90.40
4908;DHT22;2469;51.540;7.364;2022-09-17T11:30:42;19.40;90.50
4908;DHT22;2469;51.540;7.364;2022-09-17T11:33:22;19.40;90.30
4908;DHT22;2469;51.540;7.364;2022-09-17T11:35:58;19.50;90.40
4908;DHT22;2469;51.540;7.364;2022-09-17T11:38:29;19.60;90.40
4908;DHT22;2469;51.540;7.364;2022-09-17T11:41:05;19.70;90.10
4908;DHT22;2469;51.540;7.364;2022-09-17T11:43:36;19.70;90.10
4908;DHT22;2469;51.540;7.364;2022-09-17T11:46:09;19.80;90.20
4908;DHT22;2469;51.540;7.364;2022-09-17T11:48:44;19.80;90.10
4908;DHT22;2469;51.540;7.364;2022-09-17T11:51:23;19.70;90.10
4908;DHT22;2469;51.540;7.364;2022-09-17T11:53:56;19.80;85.90
4908;DHT22;2469;51.540;7.364;2022-09-17T11:56:30;19.60;88.00
4908;DHT22;2469;51.540;7.364;2022-09-17T11:59:02;19.60;90.10
4908;DHT22;2469;51.540;7.364;2022-09-17T12:01:36;19.80;87.60
4908;DHT22;2469;51.540;7.364;2022-09-17T12:04:18;19.80;90.20
4908;DHT22;2469;51.540;7.364;2022-09-17T12:06:55;19.90;90.10
4908;DHT22;2469;51.540;7.364;2022-09-17T12:09:25;19.90;90.10
4908;DHT22;2469;51.540;7.364;2022-09-17T12:12:00;20.00;90.40
4908;DHT22;2469;51.540;7.364;2022-09-17T12:14:38;20.00;90.10
4908;DHT22;2469;51.540;7.364;2022-09-17T12:17:15;20.10;89.60
4908;DHT22;2469;51.540;7.364;2022-09-17T12:19:46;20.10;90.00
4908;DHT22;2469;51.540;7.364;2022-09-17T12:22:19;20.10;90.00
4908;DHT22;2469;51.540;7.364;2022-09-17T12:24:49;20.10;89.80
4908;DHT22;2469;51.540;7.364;2022-09-17T12:27:29;20.00;90.00
4908;DHT22;2469;51.540;7.364;2022-09-17T12:30:11;19.80;90.00
4908;DHT22;2469;51.540;7.364;2022-09-17T12:32:52;19.80;90.30
4908;DHT22;2469;51.540;7.364;2022-09-17T12:35:39;19.70;90.30
4908;DHT22;2469;51.540;7.364;2022-09-17T12:38:56;19.60;90.20
4908;DHT22;2469;51.540;7.364;2022-09-17T12:41:36;19.80;91.00
4908;DHT22;2469;51.540;7.364;2022-09-17T12:44:18;19.90;90.80
4908;DHT22;2469;51.540;7.364;2022-09-17T12:47:02;20.00;90.30
4908;DHT22;2469;51.540;7.364;2022-09-17T12:49:58;20.10;90.30
4908;DHT22;2469;51.540;7.364;2022-09-17T12:52:38;20.00;90.10
4908;DHT22;2469;51.540;7.364;2022-09-17T12:55:27;20.10;90.40
4908;DHT22;2469;51.540;7.364;2022-09-17T12:58:06;20.10;90.40
4908;DHT22;2469;51.540;7.364;2022-09-17T13:00:41;20.10;90.40
4908;DHT22;2469;51.540;7.364;2022-09-17T13:03:17;20.10;90.50
4908;DHT22;2469;51.540;7.364;2022-09-17T13:06:01;20.20;90.30
4908;DHT22;2469;51.540;7.364;2022-09-17T13:12:02;20.00;85.20
4908;DHT22;2469;51.540;7.364;2022-09-17T13:14:50;19.90;90.30
4908;DHT22;2469;51.540;7.364;2022-09-17T13:17:25;19.70;88.80
4908;DHT22;2469;51.540;7.364;2022-09-17T13:20:01;19.60;87.10
4908;DHT22;2469;51.540;7.364;2022-09-17T13:22:31;19.40;89.20
4908;DHT22;2469;51.540;7.364;2022-09-17T13:25:03;19.50;90.50
4908;DHT22;2469;51.540;7.364;2022-09-17T13:27:32;19.40;90.00
4908;DHT22;2469;51.540;7.364;2022-09-17T13:30:04;19.40;91.30
4908;DHT22;2469;51.540;7.364;2022-09-17T13:32:44;19.50;91.20
4908;DHT22;2469;51.540;7.364;2022-09-17T13:35:49;19.30;89.90
4908;DHT22;2469;51.540;7.364;2022-09-17T13:38:19;19.10;90.20
4908;DHT22;2469;51.540;7.364;2022-09-17T13:40:50;19.10;91.10
4908;DHT22;2469;51.540;7.364;2022-09-17T13:43:21;19.00;88.20
4908;DHT22;2469;51.540;7.364;2022-09-17T13:48:57;19.30;88.40
4908;DHT22;2469;51.540;7.364;2022-09-17T13:51:44;19.10;90.00
4908;DHT22;2469;51.540;7.364;2022-09-17T13:54:14;19.20;90.30
4908;DHT22;2469;51.540;7.364;2022-09-17T13:56:44;19.40;91.10
4908;DHT22;2469;51.540;7.364;2022-09-17T13:59:15;19.60;91.40
4908;DHT22;2469;51.540;7.364;2022-09-17T14:02:02;19.80;89.20
4908;DHT22;2469;51.540;7.364;2022-09-17T14:04:50;19.80;90.80
4908;DHT22;2469;51.540;7.364;2022-09-17T14:07:33;19.70;89.60
4908;DHT22;2469;51.540;7.364;2022-09-17T14:10:32;19.80;89.40
4908;DHT22;2469;51.540;7.364;2022-09-17T14:13:19;19.70;88.10
4908;DHT22;2469;51.540;7.364;2022-09-17T14:15:59;19.90;91.00
4908;DHT22;2469;51.540;7.364;2022-09-17T14:18:44;19.90;90.90
4908;DHT22;2469;51.540;7.364;2022-09-17T14:21:26;20.00;89.20
4908;DHT22;2469;51.540;7.364;2022-09-17T14:23:58;20.10;90.50
4908;DHT22;2469;51.540;7.364;2022-09-17T14:26:59;20.30;90.20
4908;DHT22;2469;51.540;7.364;2022-09-17T14:29:49;20.40;88.40
4908;DHT22;2469;51.540;7.364;2022-09-17T14:32:23;19.90;85.90
4908;DHT22;2469;51.540;7.364;2022-09-17T14:34:59;19.70;86.70
4908;DHT22;2469;51.540;7.364;2022-09-17T14:37:29;19.40;87.00
4908;DHT22;2469;51.540;7.364;2022-09-17T14:39:58;19.30;87.60
4908;DHT22;2469;51.540;7.364;2022-09-17T14:42:34;19.20;87.90
4908;DHT22;2469;51.540;7.364;2022-09-17T14:45:07;19.20;87.50
4908;DHT22;2469;51.540;7.364;2022-09-17T14:47:40;19.40;88.00
4908;DHT22;2469;51.540;7.364;2022-09-17T14:50:21;19.40;87.70
4908;DHT22;2469;51.540;7.364;2022-09-17T14:52:52;19.30;88.00
4908;DHT22;2469;51.540;7.364;2022-09-17T14:55:21;19.30;88.50
4908;DHT22;2469;51.540;7.364;2022-09-17T14:57:54;19.20;85.30
4908;DHT22;2469;51.540;7.364;2022-09-17T15:00:23;18.90;84.40
4908;DHT22;2469;51.540;7.364;2022-09-17T15:02:53;18.50;81.50
4908;DHT22;2469;51.540;7.364;2022-09-17T15:05:27;18.70;90.70
4908;DHT22;2469;51.540;7.364;2022-09-17T15:08:12;19.00;90.40
4908;DHT22;2469;51.540;7.364;2022-09-17T15:10:47;19.20;90.00
4908;DHT22;2469;51.540;7.364;2022-09-17T15:13:18;19.30;88.30
4908;DHT22;2469;51.540;7.364;2022-09-17T15:16:00;19.40;87.60
4908;DHT22;2469;51.540;7.364;2022-09-17T15:18:36;19.40;89.60
4908;DHT22;2469;51.540;7.364;2022-09-17T15:21:13;19.70;88.80
4908;DHT22;2469;51.540;7.364;2022-09-17T15:23:51;19.80;89.80
4908;DHT22;2469;51.540;7.364;2022-09-17T15:26:25;20.00;89.30
4908;DHT22;2469;51.540;7.364;2022-09-17T15:28:55;20.20;88.20
4908;DHT22;2469;51.540;7.364;2022-09-17T15:31:23;20.20;88.90
4908;DHT22;2469;51.540;7.364;2022-09-17T15:33:58;20.30;88.70
4908;DHT22;2469;51.540;7.364;2022-09-17T15:36:27;20.20;88.10
4908;DHT22;2469;51.540;7.364;2022-09-17T15:38:58;20.00;85.20
4908;DHT22;2469;51.540;7.364;2022-09-17T15:41:31;20.00;88.60
4908;DHT22;2469;51.540;7.364;2022-09-17T15:44:11;20.10;89.40
4908;DHT22;2469;51.540;7.364;2022-09-17T15:47:34;20.20;84.30
4908;DHT22;2469;51.540;7.364;2022-09-17T15:50:11;20.10;88.10
4908;DHT22;2469;51.540;7.364;2022-09-17T15:52:39;19.90;79.90
4908;DHT22;2469;51.540;7.364;2022-09-17T15:55:27;19.80;82.40
4908;DHT22;2469;51.540;7.364;2022-09-17T15:57:57;19.80;82.70
4908;DHT22;2469;51.540;7.364;2022-09-17T16:00:25;19.80;85.10
4908;DHT22;2469;51.540;7.364;2022-09-17T16:02:53;19.90;86.50
4908;DHT22;2469;51.540;7.364;2022-09-17T16:05:41;20.00;86.20
4908;DHT22;2469;51.540;7.364;2022-09-17T16:08:21;19.90;82.20
4908;DHT22;2469;51.540;7.364;2022-09-17T16:10:51;20.00;85.40
4908;DHT22;2469;51.540;7.364;2022-09-17T16:13:19;20.10;84.10
4908;DHT22;2469;51.540;7.364;2022-09-17T16:15:54;20.20;87.50
4908;DHT22;2469;51.540;7.364;2022-09-17T16:18:22;20.20;86.30
4908;DHT22;2469;51.540;7.364;2022-09-17T16:20:50;20.00;84.50
4908;DHT22;2469;51.540;7.364;2022-09-17T16:23:18;20.00;87.20
4908;DHT22;2469;51.540;7.364;2022-09-17T16:25:46;20.00;84.40
4908;DHT22;2469;51.540;7.364;2022-09-17T16:28:17;19.80;86.40
4908;DHT22;2469;51.540;7.364;2022-09-17T16:30:46;19.50;80.70
4908;DHT22;2469;51.540;7.364;2022-09-17T16:33:16;19.50;83.40
4908;DHT22;2469;51.540;7.364;2022-09-17T16:35:44;19.30;81.70
4908;DHT22;2469;51.540;7.364;2022-09-17T16:38:12;19.30;83.20
4908;DHT22;2469;51.540;7.364;2022-09-17T16:40:41;19.50;81.80
4908;DHT22;2469;51.540;7.364;2022-09-17T16:43:09;19.40;80.90
4908;DHT22;2469;51.540;7.364;2022-09-17T16:45:38;19.30;82.30
4908;DHT22;2469;51.540;7.364;2022-09-17T16:48:06;19.40;85.00
4908;DHT22;2469;51.540;7.364;2022-09-17T16:50:34;19.60;85.20
4908;DHT22;2469;51.540;7.364;2022-09-17T16:53:02;19.80;84.80
4908;DHT22;2469;51.540;7.364;2022-09-17T16:55:31;20.00;84.80
4908;DHT22;2469;51.540;7.364;2022-09-17T16:57:59;20.10;85.00